createdAt,value
2019-01-20T00:00:20.462Z,-4.00
2019-01-20T00:05:46.076Z,-3.80
2019-01-20T00:08:17.615Z,-3.80
2019-01-20T00:10:56.465Z,-3.90
2019-01-20T00:13:29.454Z,-3.90
2019-01-20T00:16:12.616Z,-4.00
2019-01-20T00:18:47.184Z,-4.10
2019-01-20T00:21:19.528Z,-4.10
2019-01-20T00:23:58.021Z,-4.10
2019-01-20T00:26:35.147Z,-4.10
2019-01-20T00:29:10.513Z,-4.10
2019-01-20T00:31:43.143Z,-4.10
2019-01-20T00:34:17.786Z,-4.10
2019-01-20T00:37:00.716Z,-4.30
2019-01-20T00:39:32.270Z,-4.30
2019-01-20T00:42:04.168Z,-4.40
2019-01-20T00:44:39.578Z,-4.40
2019-01-20T00:47:11.737Z,-4.40
2019-01-20T00:49:44.005Z,-4.50
2019-01-20T00:52:16.095Z,-4.60
2019-01-20T00:54:47.510Z,-4.70
2019-01-20T00:57:20.237Z,-4.80
2019-01-20T00:59:55.764Z,-4.70
2019-01-20T01:02:27.122Z,-4.80
2019-01-20T01:05:03.556Z,-4.80
2019-01-20T01:07:36.234Z,-4.90
2019-01-20T01:10:08.484Z,-4.80
2019-01-20T01:12:40.353Z,-4.80
2019-01-20T01:15:12.570Z,-4.90
2019-01-20T01:17:43.826Z,-5.00
2019-01-20T01:20:16.865Z,-5.00
2019-01-20T01:22:48.352Z,-5.10
2019-01-20T01:25:20.092Z,-5.10
2019-01-20T01:27:51.390Z,-5.10
2019-01-20T01:30:27.711Z,-5.10
2019-01-20T01:32:59.023Z,-5.10
2019-01-20T01:35:30.275Z,-5.10
2019-01-20T01:38:01.538Z,-5.10
2019-01-20T01:40:32.754Z,-5.10
2019-01-20T01:43:04.050Z,-5.10
2019-01-20T01:45:35.339Z,-5.20
2019-01-20T01:48:06.695Z,-5.20
2019-01-20T01:50:37.961Z,-5.20
2019-01-20T01:53:09.121Z,-5.10
2019-01-20T01:55:40.429Z,-5.10
2019-01-20T01:58:11.607Z,-5.00
2019-01-20T02:00:42.913Z,-4.80
2019-01-20T02:03:14.173Z,-4.70
2019-01-20T02:05:45.390Z,-4.60
2019-01-20T02:08:16.621Z,-4.50
2019-01-20T02:10:48.034Z,-4.40
2019-01-20T02:13:19.266Z,-4.40
2019-01-20T02:15:50.661Z,-4.30
2019-01-20T02:18:21.998Z,-4.30
2019-01-20T02:20:53.280Z,-4.30
2019-01-20T02:23:24.522Z,-4.30
2019-01-20T02:25:55.866Z,-4.30
2019-01-20T02:28:27.117Z,-4.20
2019-01-20T02:30:58.473Z,-4.20
2019-01-20T02:33:29.774Z,-4.20
2019-01-20T02:36:01.015Z,-4.20
2019-01-20T02:38:32.316Z,-4.30
2019-01-20T02:41:03.578Z,-4.20
2019-01-20T02:43:34.908Z,-4.20
2019-01-20T02:46:06.249Z,-4.20
2019-01-20T02:48:37.549Z,-4.20
2019-01-20T02:51:08.793Z,-4.10
2019-01-20T02:53:40.075Z,-4.20
2019-01-20T02:56:11.421Z,-4.20
2019-01-20T02:58:42.695Z,-4.20
2019-01-20T03:01:13.947Z,-4.20
2019-01-20T03:03:45.201Z,-4.20
2019-01-20T03:06:16.481Z,-4.20
2019-01-20T03:08:47.785Z,-4.10
2019-01-20T03:11:19.020Z,-4.20
2019-01-20T03:13:50.311Z,-4.20
2019-01-20T03:16:21.615Z,-4.20
2019-01-20T03:18:53.254Z,-4.20
2019-01-20T03:21:24.598Z,-4.30
2019-01-20T03:23:55.799Z,-4.40
2019-01-20T03:26:27.074Z,-4.40
2019-01-20T03:28:58.361Z,-4.50
2019-01-20T03:31:29.607Z,-4.50
2019-01-20T03:34:00.989Z,-4.50
2019-01-20T03:36:32.255Z,-4.50
2019-01-20T03:39:03.630Z,-4.50
2019-01-20T03:41:34.898Z,-4.50
2019-01-20T03:44:06.739Z,-4.40
2019-01-20T03:46:38.017Z,-4.40
2019-01-20T03:49:09.285Z,-4.30
2019-01-20T03:51:40.479Z,-4.30
2019-01-20T03:54:11.858Z,-4.30
2019-01-20T03:56:43.507Z,-4.30
2019-01-20T03:59:14.781Z,-4.40
2019-01-20T04:01:46.172Z,-4.40
2019-01-20T04:04:17.420Z,-4.40
2019-01-20T04:06:48.638Z,-4.30
2019-01-20T04:09:20.011Z,-4.30
2019-01-20T04:11:51.262Z,-4.30
2019-01-20T04:14:22.526Z,-4.40
2019-01-20T04:16:53.764Z,-4.40
2019-01-20T04:19:25.110Z,-4.50
2019-01-20T04:21:56.342Z,-4.40
2019-01-20T04:24:28.153Z,-4.50
2019-01-20T04:26:59.399Z,-4.50
2019-01-20T04:29:30.664Z,-4.50
2019-01-20T04:32:01.913Z,-4.60
2019-01-20T04:34:33.136Z,-4.60
2019-01-20T04:37:04.420Z,-4.60
2019-01-20T04:39:35.670Z,-4.70
2019-01-20T04:42:07.089Z,-4.80
2019-01-20T04:44:38.383Z,-4.90
2019-01-20T04:47:09.683Z,-5.20
2019-01-20T04:49:40.991Z,-5.40
2019-01-20T04:52:12.347Z,-5.50
2019-01-20T04:54:43.625Z,-5.70
2019-01-20T04:57:16.631Z,-5.70
2019-01-20T04:59:47.907Z,-5.80
2019-01-20T05:02:19.220Z,-5.90
2019-01-20T05:04:50.365Z,-5.90
2019-01-20T05:07:21.605Z,-6.00
2019-01-20T05:09:52.888Z,-6.00
2019-01-20T05:12:24.140Z,-5.90
2019-01-20T05:14:55.454Z,-6.00
2019-01-20T05:17:26.694Z,-6.00
2019-01-20T05:19:57.972Z,-6.00
2019-01-20T05:22:29.211Z,-6.10
2019-01-20T05:25:00.573Z,-6.10
2019-01-20T05:27:31.850Z,-6.20
2019-01-20T05:30:03.185Z,-6.30
2019-01-20T05:32:34.465Z,-6.40
2019-01-20T05:35:06.219Z,-6.40
2019-01-20T05:37:37.493Z,-6.50
2019-01-20T05:40:10.843Z,-6.60
2019-01-20T05:42:46.450Z,-6.60
2019-01-20T05:45:18.568Z,-6.70
2019-01-20T05:47:49.905Z,-6.80
2019-01-20T05:50:21.407Z,-6.80
2019-01-20T05:52:52.677Z,-6.80
2019-01-20T05:55:23.932Z,-6.90
2019-01-20T05:58:17.031Z,-6.90
2019-01-20T06:00:48.342Z,-7.00
2019-01-20T06:03:19.614Z,-7.00
2019-01-20T06:05:50.807Z,-7.10
2019-01-20T06:08:22.116Z,-7.10
2019-01-20T06:10:53.380Z,-7.10
2019-01-20T06:13:24.692Z,-7.10
2019-01-20T06:15:55.941Z,-7.10
2019-01-20T06:18:27.234Z,-7.10
2019-01-20T06:20:58.633Z,-7.10
2019-01-20T06:23:29.904Z,-7.10
2019-01-20T06:26:01.221Z,-7.10
2019-01-20T06:28:32.485Z,-7.10
2019-01-20T06:31:03.773Z,-7.20
2019-01-20T06:33:35.129Z,-7.20
2019-01-20T06:36:06.601Z,-7.30
2019-01-20T06:38:37.896Z,-7.20
2019-01-20T06:41:09.281Z,-7.20
2019-01-20T06:43:40.534Z,-7.30
2019-01-20T06:46:11.861Z,-7.40
2019-01-20T06:48:43.138Z,-7.40
2019-01-20T06:51:14.434Z,-7.40
2019-01-20T06:53:45.726Z,-7.40
2019-01-20T06:56:17.163Z,-7.40
2019-01-20T06:58:48.419Z,-7.50
2019-01-20T07:01:19.687Z,-7.50
2019-01-20T07:03:51.008Z,-7.50
2019-01-20T07:06:22.278Z,-7.50
2019-01-20T07:08:53.548Z,-7.50
2019-01-20T07:11:24.911Z,-7.60
2019-01-20T07:14:12.032Z,-7.50
2019-01-20T07:16:45.290Z,-7.50
2019-01-20T07:19:17.675Z,-7.50
2019-01-20T07:21:51.483Z,-7.50
2019-01-20T07:24:24.313Z,-7.50
2019-01-20T07:26:56.764Z,-7.50
2019-01-20T07:29:32.789Z,-7.60
2019-01-20T07:32:06.788Z,-7.60
2019-01-20T07:34:40.319Z,-7.50
2019-01-20T07:37:15.945Z,-7.50
2019-01-20T07:39:47.894Z,-7.60
2019-01-20T07:42:19.754Z,-7.50
2019-01-20T07:44:51.624Z,-7.40
2019-01-20T07:47:24.695Z,-7.30
2019-01-20T07:49:56.590Z,-7.30
2019-01-20T07:52:27.917Z,-7.30
2019-01-20T07:55:00.846Z,-7.20
2019-01-20T07:57:33.594Z,-7.20
2019-01-20T08:00:07.654Z,-7.00
2019-01-20T08:02:39.875Z,-6.80
2019-01-20T08:05:15.000Z,-6.80
2019-01-20T08:07:47.801Z,-6.80
2019-01-20T08:10:26.226Z,-6.80
2019-01-20T08:13:00.389Z,-6.80
2019-01-20T08:15:34.272Z,-6.70
2019-01-20T08:18:07.032Z,-6.60
2019-01-20T08:20:43.080Z,-6.50
2019-01-20T08:23:14.518Z,-6.40
2019-01-20T08:25:45.733Z,-6.40
2019-01-20T08:28:16.950Z,-6.30
2019-01-20T08:30:48.200Z,-6.10
2019-01-20T08:33:19.456Z,-6.00
2019-01-20T08:35:50.772Z,-5.90
2019-01-20T08:38:21.930Z,-5.70
2019-01-20T08:40:53.195Z,-5.30
2019-01-20T08:43:31.550Z,-4.60
2019-01-20T08:46:29.634Z,-4.00
2019-01-20T08:49:01.025Z,-3.40
2019-01-20T08:51:33.441Z,-2.60
2019-01-20T08:54:04.725Z,-2.10
2019-01-20T08:56:36.075Z,-1.50
2019-01-20T08:59:07.430Z,-1.30
2019-01-20T09:01:38.848Z,-1.00
2019-01-20T09:04:10.132Z,-0.80
2019-01-20T09:06:41.484Z,-0.70
2019-01-20T09:09:12.716Z,-0.70
2019-01-20T09:11:44.025Z,-0.40
2019-01-20T09:14:15.679Z,-0.10
2019-01-20T09:16:47.006Z,0.10
2019-01-20T09:19:18.279Z,0.30
2019-01-20T09:21:49.528Z,0.10
2019-01-20T09:24:20.870Z,0.10
2019-01-20T09:26:52.111Z,0.00
2019-01-20T09:29:23.381Z,-0.30
2019-01-20T09:31:58.517Z,-0.50
2019-01-20T09:34:29.832Z,-0.80
2019-01-20T09:37:01.111Z,-1.10
2019-01-20T09:39:32.339Z,-1.50
2019-01-20T09:42:03.674Z,-1.70
2019-01-20T09:44:34.933Z,-1.90
2019-01-20T09:47:06.344Z,-2.10
2019-01-20T09:49:37.573Z,-2.20
2019-01-20T09:52:08.873Z,-2.20
2019-01-20T09:54:40.110Z,-2.30
2019-01-20T09:57:11.439Z,-2.30
2019-01-20T09:59:42.712Z,-2.20
2019-01-20T10:02:13.968Z,-2.20
2019-01-20T10:04:45.187Z,-2.20
2019-01-20T10:07:16.409Z,-2.20
2019-01-20T10:09:47.766Z,-2.10
2019-01-20T10:12:19.019Z,-2.10
2019-01-20T10:14:50.279Z,-2.10
2019-01-20T10:17:21.490Z,-2.00
2019-01-20T10:19:52.749Z,-2.00
2019-01-20T10:22:23.917Z,-1.80
2019-01-20T10:24:55.245Z,-1.70
2019-01-20T10:27:26.490Z,-1.60
2019-01-20T10:29:57.780Z,-1.50
2019-01-20T10:32:29.170Z,-1.50
2019-01-20T10:35:01.174Z,-1.40
2019-01-20T10:37:34.101Z,-1.30
2019-01-20T10:40:06.022Z,-1.30
2019-01-20T10:42:37.295Z,-1.30
2019-01-20T10:45:10.251Z,-1.20
2019-01-20T10:47:41.604Z,-1.10
2019-01-20T10:50:13.885Z,-1.00
2019-01-20T10:52:45.415Z,-1.00
2019-01-20T10:55:16.655Z,-1.00
2019-01-20T10:57:48.028Z,-0.90
2019-01-20T11:00:25.911Z,-0.90
2019-01-20T11:02:57.197Z,-0.80
2019-01-20T11:05:30.475Z,-0.70
2019-01-20T11:08:01.604Z,-0.70
2019-01-20T11:10:33.068Z,-0.70
2019-01-20T11:13:04.411Z,-0.70
2019-01-20T11:15:36.087Z,-0.70
2019-01-20T11:18:14.607Z,-0.60
2019-01-20T11:20:50.275Z,-0.60
2019-01-20T11:23:23.316Z,-0.50
2019-01-20T11:25:54.597Z,-0.40
2019-01-20T11:28:26.241Z,-0.40
2019-01-20T11:30:57.569Z,-0.40
2019-01-20T11:33:28.859Z,-0.30
2019-01-20T11:36:00.114Z,-0.20
2019-01-20T11:38:31.529Z,-0.30
2019-01-20T11:41:02.847Z,-0.20
2019-01-20T11:43:34.135Z,-0.10
2019-01-20T11:46:05.462Z,0.00
2019-01-20T11:48:36.710Z,0.10
2019-01-20T11:51:08.017Z,0.10
2019-01-20T11:53:58.237Z,0.10
2019-01-20T11:56:29.497Z,0.10
2019-01-20T11:59:00.780Z,0.10
2019-01-20T12:01:32.014Z,0.10
2019-01-20T12:04:03.238Z,0.10
2019-01-20T12:06:34.423Z,0.20
2019-01-20T12:09:08.548Z,0.30
2019-01-20T12:11:39.873Z,0.40
2019-01-20T12:14:11.263Z,0.50
2019-01-20T12:16:42.539Z,0.50
2019-01-20T12:19:13.829Z,0.50
2019-01-20T12:21:45.022Z,0.60
2019-01-20T12:24:16.318Z,0.60
2019-01-20T12:26:47.590Z,0.70
2019-01-20T12:29:18.835Z,0.80
2019-01-20T12:31:50.091Z,0.80
2019-01-20T12:34:21.360Z,0.80
2019-01-20T12:36:52.581Z,0.90
2019-01-20T12:39:23.887Z,0.90
2019-01-20T12:41:55.166Z,0.90
2019-01-20T12:44:31.523Z,1.10
2019-01-20T12:47:01.866Z,1.10
2019-01-20T12:49:33.164Z,1.10
2019-01-20T12:52:04.455Z,1.10
2019-01-20T12:54:35.674Z,1.20
2019-01-20T12:57:06.953Z,1.20
2019-01-20T12:59:38.380Z,1.20
2019-01-20T13:02:09.688Z,1.20
2019-01-20T13:04:40.841Z,1.20
2019-01-20T13:07:12.236Z,1.30
2019-01-20T13:09:43.642Z,1.30
2019-01-20T13:12:14.950Z,1.40
2019-01-20T13:14:46.193Z,1.40
2019-01-20T13:17:17.440Z,1.40
2019-01-20T13:19:48.729Z,1.50
2019-01-20T13:22:19.870Z,1.50
2019-01-20T13:24:51.141Z,1.50
2019-01-20T13:27:22.403Z,1.50
2019-01-20T13:29:53.752Z,1.50
2019-01-20T13:32:25.035Z,1.50
2019-01-20T13:34:56.286Z,1.60
2019-01-20T13:37:27.510Z,1.70
2019-01-20T13:39:58.766Z,1.70
2019-01-20T13:42:30.093Z,1.70
2019-01-20T13:45:01.271Z,1.70
2019-01-20T13:47:32.554Z,1.70
2019-01-20T13:50:03.769Z,1.70
2019-01-20T13:52:34.991Z,1.70
2019-01-20T13:55:07.627Z,1.70
2019-01-20T13:57:38.893Z,1.70
2019-01-20T14:00:18.698Z,1.60
2019-01-20T14:02:50.047Z,1.60
2019-01-20T14:05:21.458Z,1.60
2019-01-20T14:07:52.810Z,1.50
2019-01-20T14:10:24.783Z,1.50
2019-01-20T14:15:24.625Z,1.40
2019-01-20T14:17:55.886Z,1.50
2019-01-20T14:20:27.699Z,1.40
2019-01-20T14:22:59.162Z,1.40
2019-01-20T14:25:30.631Z,1.40
2019-01-20T14:28:02.046Z,1.40
2019-01-20T14:30:33.867Z,1.30
2019-01-20T14:33:05.305Z,1.30
2019-01-20T14:35:36.545Z,1.30
2019-01-20T14:38:07.982Z,1.30
2019-01-20T14:40:39.257Z,1.30
2019-01-20T14:43:10.541Z,1.30
2019-01-20T14:45:41.784Z,1.20
2019-01-20T14:48:13.019Z,1.30
2019-01-20T14:50:44.255Z,1.20
2019-01-20T14:53:15.682Z,1.20
2019-01-20T14:55:46.917Z,1.10
2019-01-20T14:58:18.087Z,1.10
2019-01-20T15:00:49.400Z,1.10
2019-01-20T15:03:20.631Z,1.10
2019-01-20T15:05:51.813Z,1.10
2019-01-20T15:08:23.150Z,1.10
2019-01-20T15:10:54.585Z,1.00
2019-01-20T15:13:26.006Z,1.00
2019-01-20T15:15:57.494Z,1.00
2019-01-20T15:18:28.765Z,1.00
2019-01-20T15:21:00.636Z,0.90
2019-01-20T15:23:31.802Z,0.80
2019-01-20T15:26:02.963Z,0.60
2019-01-20T15:28:34.443Z,0.50
2019-01-20T15:31:05.739Z,0.50
2019-01-20T15:33:37.113Z,0.40
2019-01-20T15:36:09.868Z,0.30
2019-01-20T15:38:41.222Z,0.40
2019-01-20T15:41:12.531Z,0.40
2019-01-20T15:43:43.770Z,0.40
2019-01-20T15:46:14.962Z,0.30
2019-01-20T15:48:46.284Z,0.30
2019-01-20T15:51:17.644Z,0.20
2019-01-20T15:53:48.828Z,0.00
2019-01-20T15:56:20.194Z,-0.10
2019-01-20T15:58:54.716Z,-0.30
2019-01-20T16:01:25.908Z,-0.40
2019-01-20T16:03:57.152Z,-0.50
2019-01-20T16:06:28.416Z,-0.60
2019-01-20T16:08:59.676Z,-0.70
2019-01-20T16:11:31.393Z,-0.80
2019-01-20T16:14:02.891Z,-0.90
2019-01-20T16:16:34.352Z,-1.00
2019-01-20T16:19:05.638Z,-1.00
2019-01-20T16:21:36.844Z,-1.10
2019-01-20T16:24:08.092Z,-1.20
2019-01-20T16:26:39.676Z,-1.30
2019-01-20T16:29:10.901Z,-1.40
2019-01-20T16:31:42.137Z,-1.40
2019-01-20T16:34:13.502Z,-1.40
2019-01-20T16:36:44.947Z,-1.40
2019-01-20T16:39:16.219Z,-1.40
2019-01-20T16:41:47.620Z,-1.50
2019-01-20T16:44:18.863Z,-1.60
2019-01-20T16:46:50.125Z,-1.70
2019-01-20T16:49:21.398Z,-1.80
2019-01-20T16:51:52.628Z,-1.90
2019-01-20T16:54:23.805Z,-2.00
2019-01-20T16:56:55.389Z,-2.10
2019-01-20T16:59:26.666Z,-2.10
2019-01-20T17:01:58.074Z,-2.10
2019-01-20T17:04:29.378Z,-2.30
2019-01-20T17:07:00.623Z,-2.30
2019-01-20T17:09:31.896Z,-2.40
2019-01-20T17:12:06.076Z,-2.50
2019-01-20T17:14:39.623Z,-2.50
2019-01-20T17:17:10.930Z,-2.60
2019-01-20T17:19:42.060Z,-2.70
2019-01-20T17:22:13.298Z,-2.70
2019-01-20T17:24:44.854Z,-2.80
2019-01-20T17:27:16.179Z,-2.80
2019-01-20T17:30:04.974Z,-2.80
2019-01-20T17:32:36.363Z,-2.90
2019-01-20T17:35:09.923Z,-2.80
2019-01-20T17:37:41.421Z,-2.90
2019-01-20T17:40:16.784Z,-2.90
2019-01-20T17:42:59.599Z,-3.00
2019-01-20T17:45:46.940Z,-3.00
2019-01-20T17:48:13.337Z,-3.00
2019-01-20T17:50:46.309Z,-3.00
2019-01-20T17:53:18.058Z,-3.00
2019-01-20T17:55:49.360Z,-3.00
2019-01-20T17:58:20.682Z,-3.00
2019-01-20T18:00:58.898Z,-2.90
2019-01-20T18:03:30.220Z,-2.80
2019-01-20T18:06:01.667Z,-2.70
2019-01-20T18:08:32.993Z,-2.60
2019-01-20T18:11:04.323Z,-2.60
2019-01-20T18:13:35.641Z,-2.60
2019-01-20T18:16:07.217Z,-2.50
2019-01-20T18:18:38.583Z,-2.50
2019-01-20T18:21:10.031Z,-2.60
2019-01-20T18:23:48.504Z,-2.70
2019-01-20T18:26:19.968Z,-2.70
2019-01-20T18:28:51.296Z,-2.90
2019-01-20T18:31:22.593Z,-3.00
2019-01-20T18:33:54.298Z,-3.00
2019-01-20T18:36:25.794Z,-3.10
2019-01-20T18:38:57.160Z,-3.20
2019-01-20T18:41:28.448Z,-3.20
2019-01-20T18:43:59.778Z,-3.30
2019-01-20T18:46:31.091Z,-3.40
2019-01-20T18:49:02.435Z,-3.50
2019-01-20T18:53:59.881Z,-3.60
2019-01-20T18:56:31.456Z,-3.70
2019-01-20T18:59:02.804Z,-3.80
2019-01-20T19:01:34.253Z,-3.80
2019-01-20T19:04:08.425Z,-3.80
2019-01-20T19:06:39.725Z,-3.90
2019-01-20T19:09:11.388Z,-3.90
2019-01-20T19:11:42.673Z,-4.00
2019-01-20T19:14:14.015Z,-4.10
2019-01-20T19:16:45.378Z,-4.20
2019-01-20T19:19:16.735Z,-4.10
2019-01-20T19:21:48.041Z,-4.10
2019-01-20T19:24:19.331Z,-4.10
2019-01-20T19:26:50.708Z,-4.00
2019-01-20T19:29:22.086Z,-4.00
2019-01-20T19:31:53.487Z,-4.00
2019-01-20T19:34:24.809Z,-4.10
2019-01-20T19:36:56.130Z,-4.20
2019-01-20T19:39:27.460Z,-4.20
2019-01-20T19:41:58.815Z,-4.20
2019-01-20T19:44:30.222Z,-4.30
2019-01-20T19:47:01.534Z,-4.40
2019-01-20T19:49:32.922Z,-4.50
2019-01-20T19:52:04.314Z,-4.50
2019-01-20T19:54:35.582Z,-4.60
2019-01-20T19:57:06.985Z,-4.50
2019-01-20T19:59:38.320Z,-4.30
2019-01-20T20:02:09.658Z,-4.20
2019-01-20T20:04:40.928Z,-3.70
2019-01-20T20:07:12.313Z,-3.50
2019-01-20T20:09:43.613Z,-3.30
2019-01-20T20:12:14.899Z,-3.20
2019-01-20T20:14:46.165Z,-3.10
2019-01-20T20:17:17.449Z,-3.00
2019-01-20T20:19:48.750Z,-2.80
2019-01-20T20:22:20.046Z,-2.70
2019-01-20T20:24:51.377Z,-2.70
2019-01-20T20:27:22.699Z,-2.60
2019-01-20T20:29:53.993Z,-2.50
2019-01-20T20:32:25.236Z,-2.50
2019-01-20T20:34:56.646Z,-2.50
2019-01-20T20:37:27.861Z,-2.50
2019-01-20T20:39:59.103Z,-2.70
2019-01-20T20:42:30.373Z,-2.80
2019-01-20T20:45:01.672Z,-2.90
2019-01-20T20:47:32.993Z,-2.90
2019-01-20T20:50:04.439Z,-3.00
2019-01-20T20:52:35.836Z,-3.20
2019-01-20T20:55:08.122Z,-3.30
2019-01-20T20:57:39.541Z,-3.40
2019-01-20T21:00:44.868Z,-3.50
2019-01-20T21:03:23.678Z,-3.60
2019-01-20T21:05:55.217Z,-3.70
2019-01-20T21:08:27.379Z,-3.70
2019-01-20T21:10:59.040Z,-3.70
2019-01-20T21:13:34.139Z,-3.80
2019-01-20T21:16:06.525Z,-3.80
2019-01-20T21:18:39.781Z,-3.90
2019-01-20T21:21:12.267Z,-4.00
2019-01-20T21:23:47.819Z,-4.00
2019-01-20T21:26:32.712Z,-4.00
2019-01-20T21:29:32.631Z,-3.90
2019-01-20T21:32:39.473Z,-3.90
2019-01-20T21:35:33.541Z,-3.90
2019-01-20T21:38:12.995Z,-3.80
2019-01-20T21:40:51.820Z,-3.80
2019-01-20T21:43:25.701Z,-3.70
2019-01-20T21:45:57.306Z,-3.60
2019-01-20T21:48:28.777Z,-3.70
2019-01-20T21:51:00.208Z,-3.70
2019-01-20T21:53:31.727Z,-3.60
2019-01-20T21:56:03.189Z,-3.60
2019-01-20T21:58:34.663Z,-3.70
2019-01-20T22:01:06.883Z,-3.70
2019-01-20T22:03:38.596Z,-3.70
2019-01-20T22:06:10.091Z,-3.80
2019-01-20T22:08:41.805Z,-3.80
2019-01-20T22:11:13.612Z,-4.00
2019-01-20T22:13:45.137Z,-4.10
2019-01-20T22:16:16.568Z,-4.20
2019-01-20T22:18:48.912Z,-4.30
2019-01-20T22:21:21.417Z,-4.40
2019-01-20T22:23:52.712Z,-4.50
2019-01-20T22:26:24.068Z,-4.60
2019-01-20T22:28:55.445Z,-4.70
2019-01-20T22:31:26.762Z,-4.70
2019-01-20T22:33:58.234Z,-4.80
2019-01-20T22:36:29.643Z,-4.90
2019-01-20T22:39:00.968Z,-5.00
2019-01-20T22:41:32.355Z,-5.00
2019-01-20T22:44:03.636Z,-5.10
2019-01-20T22:46:35.065Z,-5.10
2019-01-20T22:49:06.375Z,-5.20
2019-01-20T22:51:37.707Z,-5.30
2019-01-20T22:54:09.020Z,-5.30
2019-01-20T22:56:40.376Z,-5.40
2019-01-20T22:59:11.752Z,-5.40
2019-01-20T23:01:43.264Z,-5.40
2019-01-20T23:04:14.602Z,-5.50
2019-01-20T23:06:45.984Z,-5.50
2019-01-20T23:09:17.301Z,-5.50
2019-01-20T23:11:48.611Z,-5.50
2019-01-20T23:14:19.937Z,-5.40
2019-01-20T23:16:51.206Z,-5.20
2019-01-20T23:19:22.515Z,-5.10
2019-01-20T23:21:53.757Z,-4.90
2019-01-20T23:24:25.026Z,-4.80
2019-01-20T23:26:56.338Z,-4.70
2019-01-20T23:29:27.623Z,-4.80
2019-01-20T23:31:58.952Z,-5.00
2019-01-20T23:34:30.349Z,-5.20
2019-01-20T23:37:01.867Z,-5.40
2019-01-20T23:39:33.264Z,-5.50
2019-01-20T23:42:04.659Z,-5.60
2019-01-20T23:44:36.386Z,-5.70
2019-01-20T23:47:14.916Z,-5.90
2019-01-20T23:49:41.150Z,-6.00
2019-01-20T23:52:13.629Z,-6.00
2019-01-20T23:54:45.341Z,-6.00
2019-01-20T23:57:17.004Z,-6.00
2019-01-20T23:59:48.553Z,-6.00
